Commerce City, Colorado
Current Conditions -  °F | °C
As of 10:58 PM on Tuesday 25 Nov 2014 (Local Time) from KBKF Reporting Station
Overcast Overcast  
Wind Chill: 22°   Ceiling: 1000
Heat Index: 29°   Visibility: 10mi
Dew Point: 27°   Wind: 8mph
Humidity: 89%   Direction: 60°ENE
Pressure: 30.13"   Gusts: NA
Location:  39.81°N, 104.92°W
Report Text: KBKF 260558Z 06007KT 10SM OVC010 M01/M03 A3013 RMK AO2A PRESRR SLP205 T10141030 10074 21014 52052
Loading
Personal Weather Stations






























Interactive Weather Map New forecast layout! Learn more

10-Day Weather Forecast

Advertisements
Track Severe Weather on mobile